Time;durP1;ratioP1;P1;durP2;ratioP2;P2;SDS_P1;SDS_P2;PMS_P1;PMS_P2;Temp;Humidity;BMP_temperature;BMP_pressure;BME280_temperature;BME280_humidity;BME280_pressure;Samples;Min_cycle;Max_cycle;Signal;HPM_P1;HPM_P2
2022/08/22 00:01:50;;;;;;;13.07;5.57;;;;;;;16.14;93.49;101525.22;5011565;28;20036;-68
2022/08/22 00:04:24;;;;;;;11.50;5.35;;;;;;;16.05;94.32;101538.06;5011445;28;20521;-68
2022/08/22 00:06:59;;;;;;;7.68;4.95;;;;;;;15.94;95.14;101528.81;5011519;28;20421;-68
2022/08/22 00:09:51;;;;;;;10.70;5.13;;;;;;;15.89;95.61;101527.84;5011310;28;20069;-69
2022/08/22 00:12:47;;;;;;;8.75;4.45;;;;;;;15.91;95.35;101536.50;5011316;28;20032;-69
2022/08/22 00:15:21;;;;;;;9.27;5.28;;;;;;;15.88;95.42;101532.38;5011413;28;20038;-68
2022/08/22 00:18:08;;;;;;;11.82;6.65;;;;;;;15.90;93.80;101529.47;5011276;28;20069;-68
2022/08/22 00:20:48;;;;;;;15.07;6.25;;;;;;;15.95;94.68;101537.72;5011344;28;20026;-68
2022/08/22 00:23:35;;;;;;;8.07;4.90;;;;;;;15.97;94.24;101532.97;5011247;28;20471;-68
2022/08/22 00:26:08;;;;;;;11.23;5.65;;;;;;;15.97;94.85;101528.38;5011059;28;20085;-68
2022/08/22 00:28:43;;;;;;;12.85;5.40;;;;;;;15.96;94.81;101531.31;5011127;28;20068;-68
2022/08/22 00:31:20;;;;;;;14.02;7.90;;;;;;;15.93;95.05;101527.19;5011053;28;20029;-68
2022/08/22 00:33:55;;;;;;;12.85;6.05;;;;;;;15.92;94.62;101525.53;5010909;28;20181;-68
2022/08/22 00:36:29;;;;;;;11.27;6.38;;;;;;;15.93;94.70;101534.44;5010906;28;20033;-68
2022/08/22 00:39:15;;;;;;;13.27;5.75;;;;;;;15.96;94.23;101534.00;5010727;28;20444;-68
2022/08/22 00:42:16;;;;;;;12.65;6.40;;;;;;;15.93;94.46;101532.56;5010801;28;20029;-68
2022/08/22 00:44:41;;;;;;;15.00;7.32;;;;;;;15.90;94.81;101534.84;5010727;28;20033;-68
2022/08/22 00:47:19;;;;;;;9.77;5.30;;;;;;;15.86;95.26;101525.56;5010659;28;20026;-69
2022/08/22 00:50:03;;;;;;;12.05;5.80;;;;;;;15.85;95.22;101529.28;5010694;28;20030;-68
2022/08/22 00:52:57;;;;;;;9.57;5.85;;;;;;;15.82;96.02;101538.59;5010571;28;20026;-68
2022/08/22 00:55:49;;;;;;;9.65;5.63;;;;;;;15.81;95.93;101536.16;5010623;28;20026;-68
2022/08/22 00:58:44;;;;;;;;;;;;;;;15.87;93.22;101533.41;5010961;28;20033;-68
2022/08/22 01:01:13;;;;;;;8.13;4.78;;;;;;;15.87;95.70;101538.78;4989217;28;20272;-68
2022/08/22 01:03:51;;;;;;;12.45;5.50;;;;;;;15.88;96.77;101536.94;5010246;28;20084;-68
2022/08/22 01:06:29;;;;;;;10.20;5.43;;;;;;;15.87;97.20;101541.47;5011221;28;20046;-68
2022/08/22 01:09:08;;;;;;;8.32;5.15;;;;;;;15.86;96.85;101539.84;5010691;28;20083;-68
2022/08/22 01:12:15;;;;;;;13.52;6.25;;;;;;;15.86;96.44;101534.47;5010237;28;20120;-68
2022/08/22 01:14:52;;;;;;;12.80;5.93;;;;;;;15.87;96.49;101537.97;4979780;28;20041;-68
2022/08/22 01:17:30;;;;;;;12.95;6.45;;;;;;;15.85;96.69;101535.50;5010318;28;20030;-68
2022/08/22 01:20:23;;;;;;;9.98;5.38;;;;;;;15.89;97.48;101539.41;5010207;28;20053;-68
2022/08/22 01:23:06;;;;;;;10.85;6.18;;;;;;;15.91;97.21;101541.91;5010112;28;20469;-68
2022/08/22 01:26:23;;;;;;;11.57;6.45;;;;;;;15.90;97.24;101538.38;5009565;28;20052;-68
2022/08/22 01:29:06;;;;;;;9.52;5.93;;;;;;;15.86;97.60;101541.72;4976629;28;20492;-68
2022/08/22 01:31:50;;;;;;;14.65;6.88;;;;;;;15.84;97.03;101538.41;5009902;28;20480;-68
2022/08/22 01:34:40;;;;;;;12.00;6.40;;;;;;;15.87;97.08;101537.97;5009962;28;20492;-68
2022/08/22 01:37:23;;;;;;;16.45;7.07;;;;;;;15.85;97.20;101543.59;5009764;28;20034;-68
2022/08/22 01:39:51;;;;;;;12.13;6.22;;;;;;;15.85;97.73;101542.75;5009899;28;20037;-68
2022/08/22 01:42:28;;;;;;;8.20;5.43;;;;;;;15.84;98.25;101530.34;5009666;28;20030;-69
2022/08/22 01:45:18;;;;;;;12.00;5.65;;;;;;;15.85;97.96;101531.97;5009682;28;20462;-69
2022/08/22 01:47:54;;;;;;;12.45;6.57;;;;;;;15.85;97.81;101531.97;5009784;28;20022;-67
2022/08/22 01:50:33;;;;;;;10.27;5.70;;;;;;;15.91;98.40;101529.25;5009742;28;20545;-67
2022/08/22 01:53:17;;;;;;;10.50;5.75;;;;;;;15.88;98.64;101524.31;5009524;28;20521;-67
2022/08/22 01:55:45;;;;;;;14.52;6.30;;;;;;;15.93;98.97;101518.31;5009573;28;20025;-67
2022/08/22 01:58:25;;;;;;;9.20;5.38;;;;;;;15.92;100.00;101524.69;5009689;28;21003;-67
2022/08/22 02:01:23;;;;;;;9.27;4.90;;;;;;;15.90;99.43;101522.25;5009277;28;20030;-67
2022/08/22 02:04:08;;;;;;;8.27;5.38;;;;;;;15.91;100.00;101518.50;5009187;28;20033;-67
2022/08/22 02:06:57;;;;;;;11.93;5.47;;;;;;;15.91;99.52;101515.81;5009447;28;20022;-68
2022/08/22 02:09:49;;;;;;;11.30;5.82;;;;;;;15.88;98.82;101520.81;5009464;28;20480;-67
2022/08/22 02:12:32;;;;;;;;;;;;;;;15.91;96.47;101523.06;5009585;28;20042;-67
2022/08/22 02:15:06;;;;;;;14.65;6.13;;;;;;;15.89;97.12;101525.13;5009468;28;19953;-64
2022/08/22 02:17:47;;;;;;;12.85;6.68;;;;;;;15.87;97.69;101517.28;5012537;28;20137;-64
2022/08/22 02:20:31;;;;;;;11.23;6.35;;;;;;;15.89;98.30;101522.44;5013485;28;20044;-64
2022/08/22 02:23:06;;;;;;;15.70;7.50;;;;;;;15.87;97.60;101527.22;5013526;28;20076;-64
2022/08/22 02:25:51;;;;;;;11.63;6.40;;;;;;;15.82;98.94;101519.78;5013323;28;20537;-64
2022/08/22 02:28:29;;;;;;;14.23;6.88;;;;;;;15.77;97.98;101525.81;5013178;28;20026;-64
2022/08/22 02:31:05;;;;;;;13.32;7.00;;;;;;;15.77;98.12;101515.06;5013347;28;20120;-64
2022/08/22 02:33:48;;;;;;;12.80;6.55;;;;;;;15.82;97.92;101514.41;5013208;28;20021;-64
2022/08/22 02:36:35;;;;;;;13.38;6.30;;;;;;;15.85;97.60;101507.75;5013105;28;20129;-64
2022/08/22 02:39:12;;;;;;;11.98;6.22;;;;;;;15.89;97.97;101515.19;5012789;28;20081;-64
2022/08/22 02:42:11;;;;;;;11.32;6.63;;;;;;;15.92;97.94;101509.38;5013099;28;20025;-64
2022/08/22 02:44:41;;;;;;;11.98;7.18;;;;;;;15.89;97.66;101500.94;5013034;28;20084;-64
2022/08/22 02:47:25;;;;;;;12.23;6.40;;;;;;;15.91;97.87;101501.53;5013015;28;20037;-64
2022/08/22 02:50:04;;;;;;;11.20;5.93;;;;;;;15.88;98.74;101502.81;4995171;28;20036;-64
2022/08/22 02:52:53;;;;;;;9.68;5.40;;;;;;;15.89;98.77;101506.31;5012579;28;20361;-64
2022/08/22 02:55:28;;;;;;;10.25;6.03;;;;;;;15.88;98.88;101515.44;5012487;28;20040;-64
2022/08/22 02:58:26;;;;;;;10.95;7.10;;;;;;;15.90;98.57;101514.19;5012622;28;20493;-64
2022/08/22 03:00:57;;;;;;;10.40;5.38;;;;;;;15.91;98.42;101505.06;4980376;28;20061;-64
2022/08/22 03:03:27;;;;;;;10.20;6.38;;;;;;;15.91;98.50;101502.38;5012745;28;20064;-64
2022/08/22 03:06:04;;;;;;;12.55;5.78;;;;;;;15.94;98.13;101501.09;5012402;28;20424;-64
2022/08/22 03:08:37;;;;;;;12.18;7.18;;;;;;;15.92;98.79;101495.94;5012487;28;20030;-64
2022/08/22 03:11:23;;;;;;;14.75;6.22;;;;;;;15.96;98.41;101497.16;5012544;28;20473;-64
2022/08/22 03:14:02;;;;;;;14.75;5.32;;;;;;;15.95;98.24;101500.06;5011979;28;20085;-64
2022/08/22 03:16:46;;;;;;;15.80;6.50;;;;;;;15.95;97.64;101502.75;5012091;28;20022;-64
2022/08/22 03:19:22;;;;;;;11.73;5.63;;;;;;;15.91;97.42;101493.47;5012333;28;20026;-64
2022/08/22 03:22:01;;;;;;;15.70;6.30;;;;;;;15.89;97.83;101492.84;5012493;28;20018;-64
2022/08/22 03:24:43;;;;;;;12.52;5.90;;;;;;;15.86;98.74;101496.81;5011903;28;20044;-64
2022/08/22 03:27:11;;;;;;;12.48;6.32;;;;;;;15.85;97.92;101492.47;5012064;28;20033;-64
2022/08/22 03:29:42;;;;;;;11.73;5.43;;;;;;;15.87;98.83;101489.56;5012269;28;20452;-64
2022/08/22 03:32:14;;;;;;;12.57;5.80;;;;;;;15.82;99.72;101484.00;5012152;28;20040;-64
2022/08/22 03:34:58;;;;;;;;;;;;;;;15.84;97.63;101481.91;5013218;28;20045;-64
2022/08/22 03:37:39;;;;;;;13.20;6.22;;;;;;;15.75;100.00;101479.50;5011657;28;19932;-64
2022/08/22 03:40:52;;;;;;;11.85;5.78;;;;;;;15.72;100.00;101488.00;5012040;28;20032;-64
2022/08/22 03:43:55;;;;;;;13.20;5.68;;;;;;;15.72;100.00;101485.31;4941600;28;20454;-64
2022/08/22 03:46:30;;;;;;;12.05;5.75;;;;;;;15.72;99.70;101473.72;5012078;28;20436;-64
2022/08/22 03:49:03;;;;;;;11.45;6.10;;;;;;;15.70;99.77;101473.94;5011904;28;20116;-64
2022/08/22 03:51:54;;;;;;;14.82;6.65;;;;;;;15.70;99.92;101467.72;5011831;28;20082;-64
2022/08/22 03:54:44;;;;;;;12.38;7.05;;;;;;;15.69;99.40;101466.06;5011469;28;20045;-64
2022/08/22 03:57:46;;;;;;;10.07;5.47;;;;;;;15.67;99.63;101476.19;5011647;28;20030;-64
2022/08/22 04:00:31;;;;;;;19.08;7.07;;;;;;;15.62;99.27;101476.03;4998252;28;20061;-64
2022/08/22 04:03:34;;;;;;;8.55;4.70;;;;;;;15.60;99.28;101470.84;5011569;28;20022;-67
2022/08/22 04:06:38;;;;;;;9.35;5.50;;;;;;;15.57;99.51;101474.78;5011530;28;20477;-67
2022/08/22 04:09:18;;;;;;;11.77;6.07;;;;;;;15.49;98.93;101480.41;4993688;28;20045;-67
2022/08/22 04:11:59;;;;;;;24.75;7.88;;;;;;;15.46;99.28;101474.66;5011326;28;20033;-67
2022/08/22 04:14:46;;;;;;;13.70;5.78;;;;;;;15.45;99.47;101478.34;4993535;28;20053;-68
2022/08/22 04:17:38;;;;;;;12.20;5.45;;;;;;;15.42;99.52;101481.47;5011025;28;20076;-67
2022/08/22 04:20:49;;;;;;;13.85;6.38;;;;;;;15.33;99.30;101479.03;5010961;28;20481;-67
2022/08/22 04:24:01;;;;;;;9.85;6.30;;;;;;;15.31;99.19;101486.47;4980835;28;20077;-67
2022/08/22 04:26:43;;;;;;;10.70;5.35;;;;;;;15.29;99.68;101493.09;5011182;28;20022;-67
2022/08/22 04:29:14;;;;;;;14.68;7.00;;;;;;;15.28;99.95;101491.47;5011212;28;20037;-67
2022/08/22 04:31:52;;;;;;;9.27;5.65;;;;;;;15.27;100.00;101493.34;5010970;28;20018;-68
2022/08/22 04:34:30;;;;;;;16.83;8.25;;;;;;;15.25;100.00;101494.59;5010896;28;20084;-68
2022/08/22 04:37:03;;;;;;;13.07;5.50;;;;;;;15.19;99.44;101496.22;5010887;28;20509;-67
2022/08/22 04:39:36;;;;;;;15.65;7.93;;;;;;;15.13;99.67;101487.16;5009932;28;20046;-67
2022/08/22 04:42:08;;;;;;;10.65;5.82;;;;;;;15.13;100.00;101491.72;5010573;28;20405;-67
2022/08/22 04:44:37;;;;;;;14.05;6.38;;;;;;;15.09;100.00;101488.63;5010571;28;20018;-69
2022/08/22 04:47:07;;;;;;;13.48;6.25;;;;;;;15.06;100.00;101498.94;5010734;28;20037;-68
2022/08/22 04:49:40;;;;;;;14.15;6.28;;;;;;;15.03;100.00;101496.69;5010511;28;20087;-69
2022/08/22 04:52:31;;;;;;;11.25;6.03;;;;;;;14.97;100.00;101486.78;5010276;28;20030;-67
2022/08/22 04:55:09;;;;;;;14.88;7.72;;;;;;;14.96;100.00;101490.50;5010405;28;20444;-67
2022/08/22 04:58:18;;;;;;;12.57;6.57;;;;;;;14.92;100.00;101495.47;5010400;28;20033;-67
2022/08/22 05:01:22;;;;;;;9.65;5.38;;;;;;;14.93;100.00;101502.47;5010016;28;20116;-68
2022/08/22 05:04:01;;;;;;;10.95;6.60;;;;;;;14.93;100.00;101507.03;4930082;29;20027;-68
2022/08/22 05:06:31;;;;;;;13.45;6.85;;;;;;;14.99;100.00;101506.22;5002490;28;20125;-66
2022/08/22 05:09:05;;;;;;;14.25;7.03;;;;;;;15.04;100.00;101509.94;5010225;28;20044;-68
2022/08/22 05:11:33;;;;;;;12.57;8.02;;;;;;;15.11;100.00;101509.88;5009967;28;20041;-67
2022/08/22 05:14:05;;;;;;;12.73;6.20;;;;;;;15.12;100.00;101515.06;5010413;28;20141;-67
2022/08/22 05:16:44;;;;;;;12.20;6.53;;;;;;;15.08;100.00;101500.38;5010339;28;20049;-67
2022/08/22 05:19:18;;;;;;;13.02;6.15;;;;;;;15.15;100.00;101510.31;5009871;28;20087;-67
2022/08/22 05:21:46;;;;;;;14.32;6.97;;;;;;;15.12;100.00;101498.94;5009788;28;20136;-67
2022/08/22 05:24:18;;;;;;;12.52;7.60;;;;;;;15.21;100.00;101517.53;4992066;28;20461;-67
2022/08/22 05:26:49;;;;;;;15.35;6.53;;;;;;;15.23;100.00;101507.41;5009810;28;20033;-67
2022/08/22 05:29:19;;;;;;;9.17;6.27;;;;;;;15.27;100.00;101514.84;5009762;28;20036;-67
2022/08/22 05:31:52;;;;;;;13.30;7.45;;;;;;;15.26;100.00;101499.72;5009868;28;20492;-67
2022/08/22 05:34:29;;;;;;;15.57;8.32;;;;;;;15.38;100.00;101513.34;5009778;28;20079;-67
2022/08/22 05:37:02;;;;;;;15.43;8.88;;;;;;;15.41;100.00;101520.16;5009943;28;20030;-64
2022/08/22 05:39:28;;;;;;;13.02;7.72;;;;;;;15.45;100.00;101524.06;5009887;28;20435;-64
2022/08/22 05:42:01;;;;;;;14.95;8.73;;;;;;;15.48;100.00;101518.25;5009859;28;20034;-64
2022/08/22 05:44:33;;;;;;;16.80;8.32;;;;;;;15.60;100.00;101523.81;5009602;28;20033;-64
2022/08/22 05:47:13;;;;;;;14.75;8.20;;;;;;;15.64;100.00;101525.84;5009693;28;20100;-64
2022/08/22 05:49:48;;;;;;;16.23;8.13;;;;;;;15.71;100.00;101523.16;5009642;28;20029;-64
2022/08/22 05:52:19;;;;;;;14.13;8.43;;;;;;;15.80;100.00;101529.94;5008821;28;20028;-64
2022/08/22 05:55:28;;;;;;;15.90;8.65;;;;;;;15.86;100.00;101534.47;5009252;28;20041;-64
2022/08/22 05:58:18;;;;;;;13.50;8.45;;;;;;;15.92;100.00;101525.53;4976580;28;20088;-64
2022/08/22 06:00:47;;;;;;;16.33;9.05;;;;;;;16.00;100.00;101513.69;5009587;28;20025;-65
2022/08/22 06:03:21;;;;;;;16.25;9.05;;;;;;;16.05;100.00;101521.94;5008982;28;20104;-64
2022/08/22 06:05:52;;;;;;;14.45;8.07;;;;;;;16.09;100.00;101515.09;5009399;28;20117;-64
2022/08/22 06:08:32;;;;;;;19.05;9.45;;;;;;;16.14;100.00;101520.66;5009358;28;20034;-65
2022/08/22 06:11:05;;;;;;;14.88;9.60;;;;;;;16.19;100.00;101520.81;5009382;28;20060;-65
2022/08/22 06:13:38;;;;;;;17.52;9.38;;;;;;;16.25;100.00;101524.50;5008912;28;20101;-65
2022/08/22 06:16:16;;;;;;;18.00;10.18;;;;;;;16.30;99.91;101524.69;5009386;28;20481;-66
2022/08/22 06:18:42;;;;;;;17.60;10.73;;;;;;;16.35;99.65;101529.41;5009284;28;20068;-65
2022/08/22 06:21:19;;;;;;;20.60;10.48;;;;;;;16.36;99.68;101531.88;5009048;28;20034;-65
2022/08/22 06:23:52;;;;;;;20.17;10.73;;;;;;;16.36;99.63;101526.50;5009129;28;20689;-65
2022/08/22 06:26:18;;;;;;;17.02;9.25;;;;;;;16.43;99.28;101535.34;5008844;28;20068;-66
2022/08/22 06:28:48;;;;;;;17.65;9.35;;;;;;;16.51;98.96;101536.13;5009270;28;20026;-66
2022/08/22 06:31:29;;;;;;;20.40;10.20;;;;;;;16.61;99.37;101541.81;4991133;28;20937;-66
2022/08/22 06:34:16;;;;;;;16.17;9.98;;;;;;;16.70;99.23;101547.78;5008886;28;20479;-66
2022/08/22 06:36:48;;;;;;;19.98;10.65;;;;;;;16.73;97.88;101545.47;5008956;28;20034;-63
2022/08/22 06:39:35;;;;;;;22.33;11.70;;;;;;;16.79;98.39;101541.09;5009049;28;20137;-63
2022/08/22 06:42:13;;;;;;;19.20;9.70;;;;;;;16.79;98.22;101546.47;5009086;28;20034;-63
2022/08/22 06:45:06;;;;;;;17.92;10.57;;;;;;;16.85;98.25;101553.69;5009336;28;20079;-63
2022/08/22 06:47:38;;;;;;;22.52;11.35;;;;;;;16.86;98.01;101549.94;5001293;28;20038;-62
2022/08/22 06:50:18;;;;;;;15.70;10.85;;;;;;;16.91;98.78;101552.78;5008998;28;20030;-62
2022/08/22 06:53:07;;;;;;;19.35;10.00;;;;;;;16.95;98.61;101547.78;5008851;28;20030;-63
2022/08/22 06:55:35;;;;;;;17.95;11.25;;;;;;;17.01;97.78;101547.72;5008831;28;20376;-63
2022/08/22 06:58:10;;;;;;;19.65;11.88;;;;;;;17.09;98.81;101549.31;5008763;28;20057;-63
2022/08/22 07:00:40;;;;;;;18.98;11.55;;;;;;;17.14;97.51;101551.34;5005939;28;20101;-64
2022/08/22 07:03:26;;;;;;;18.23;10.27;;;;;;;17.20;96.75;101555.84;5007052;28;20503;-64
2022/08/22 07:05:54;;;;;;;23.27;11.60;;;;;;;17.25;97.56;101558.69;5011651;28;20342;-65
2022/08/22 07:08:22;;;;;;;19.35;11.98;;;;;;;17.24;97.33;101555.16;5012081;28;20021;-64
2022/08/22 07:11:17;;;;;;;18.38;10.45;;;;;;;17.32;97.76;101551.34;5012181;28;20160;-64
2022/08/22 07:13:50;;;;;;;19.83;11.80;;;;;;;17.37;98.36;101556.06;5009711;28;20072;-64
2022/08/22 07:16:27;;;;;;;20.42;11.00;;;;;;;17.41;97.26;101560.78;5011734;28;20025;-65
2022/08/22 07:18:53;;;;;;;18.08;10.45;;;;;;;17.47;97.43;101551.78;5012293;28;20038;-65
2022/08/22 07:21:30;;;;;;;23.98;10.95;;;;;;;17.49;97.88;101555.09;5011882;28;20822;-65
2022/08/22 07:23:59;;;;;;;20.88;11.52;;;;;;;17.57;97.21;101558.53;5012081;28;20022;-65
2022/08/22 07:26:29;;;;;;;18.75;10.23;;;;;;;17.60;95.86;101564.28;5012049;28;20037;-65
2022/08/22 07:29:15;;;;;;;18.05;10.50;;;;;;;17.64;97.63;101567.38;5012159;28;20026;-64
2022/08/22 07:31:53;;;;;;;22.52;10.98;;;;;;;17.71;97.92;101566.25;5011868;28;20045;-65
2022/08/22 07:34:38;;;;;;;23.40;10.90;;;;;;;17.75;97.40;101562.03;5011733;28;20560;-65
2022/08/22 07:37:11;;;;;;;16.85;10.90;;;;;;;17.79;95.98;101565.16;5011561;28;20036;-65
2022/08/22 07:39:56;;;;;;;19.35;11.52;;;;;;;17.84;96.10;101559.91;5012025;28;20370;-64
2022/08/22 07:42:34;;;;;;;22.60;13.38;;;;;;;17.87;95.13;101556.75;5011652;28;20461;-67
2022/08/22 07:45:09;;;;;;;20.80;12.05;;;;;;;17.95;95.34;101552.91;5011993;28;20038;-67
2022/08/22 07:48:03;;;;;;;22.00;11.55;;;;;;;18.04;94.98;101551.50;5011998;28;20108;-70
2022/08/22 07:50:35;;;;;;;19.40;10.63;;;;;;;18.13;95.08;101550.16;5011700;28;20041;-70
2022/08/22 07:53:12;;;;;;;18.10;9.68;;;;;;;18.24;96.46;101553.94;5011479;28;20034;-68
2022/08/22 07:55:38;;;;;;;20.48;11.13;;;;;;;18.38;97.15;101552.66;5011523;28;20128;-67
2022/08/22 07:58:06;;;;;;;18.02;11.10;;;;;;;18.43;92.32;101538.47;5010910;28;20041;-67
2022/08/22 08:00:33;;;;;;;21.17;11.15;;;;;;;18.61;92.58;101545.69;5011375;28;20113;-68
2022/08/22 08:03:06;;;;;;;22.85;11.55;;;;;;;18.74;92.15;101548.16;5011290;28;20060;-70
2022/08/22 08:05:35;;;;;;;20.10;11.98;;;;;;;18.88;90.41;101540.66;5011146;28;20117;-69
2022/08/22 08:08:07;;;;;;;17.92;10.77;;;;;;;19.36;88.75;101536.88;5011119;28;20037;-69
2022/08/22 08:10:38;;;;;;;21.42;11.65;;;;;;;20.17;84.99;101536.81;5011315;28;20033;-69
2022/08/22 08:13:13;;;;;;;19.20;10.18;;;;;;;21.59;79.85;101533.81;5011024;28;20104;-70
2022/08/22 08:15:43;;;;;;;18.73;11.23;;;;;;;23.43;72.26;101535.31;5010659;28;20615;-69
2022/08/22 08:18:13;;;;;;;20.63;10.85;;;;;;;25.29;65.38;101532.44;5010894;28;20038;-69
2022/08/22 08:20:38;;;;;;;19.02;10.80;;;;;;;26.50;59.98;101533.88;5011005;28;20048;-66
2022/08/22 08:23:08;;;;;;;19.83;9.68;;;;;;;27.71;55.95;101535.53;5011031;28;20026;-66
2022/08/22 08:25:51;;;;;;;15.32;9.52;;;;;;;28.42;57.87;101514.44;5010786;28;20030;-66
2022/08/22 08:28:36;;;;;;;17.38;8.85;;;;;;;29.13;51.50;101520.56;5010911;28;20026;-66
2022/08/22 08:31:26;;;;;;;17.73;7.90;;;;;;;29.98;53.68;101514.63;5010955;28;20053;-66
2022/08/22 08:34:17;;;;;;;11.65;8.05;;;;;;;30.41;49.09;101520.44;5010790;28;20547;-66
2022/08/22 08:36:56;;;;;;;16.27;8.40;;;;;;;30.81;49.31;101512.22;5010142;28;20489;-66
2022/08/22 08:39:43;;;;;;;15.65;8.85;;;;;;;31.11;50.02;101516.06;5010346;28;20489;-66
2022/08/22 08:42:32;;;;;;;17.67;8.10;;;;;;;30.75;43.48;101516.22;5010605;28;20022;-67
2022/08/22 08:45:23;;;;;;;12.82;8.77;;;;;;;30.75;49.22;101516.22;5010650;28;20017;-68
2022/08/22 08:48:23;;;;;;;15.07;7.72;;;;;;;29.84;50.99;101518.25;5010808;28;20388;-67
2022/08/22 08:51:00;;;;;;;11.60;7.22;;;;;;;27.81;50.31;101512.69;4968503;28;20514;-67
2022/08/22 08:54:10;;;;;;;12.85;7.13;;;;;;;26.42;54.36;101514.22;5010559;28;20029;-66
2022/08/22 08:57:09;;;;;;;17.50;7.65;;;;;;;25.23;57.25;101504.34;4990184;28;20038;-66
2022/08/22 08:59:41;;;;;;;15.35;6.45;;;;;;;24.48;56.66;101510.47;5010361;28;20115;-66
2022/08/22 09:02:29;;;;;;;15.07;7.55;;;;;;;23.89;61.61;101502.78;5010478;28;20441;-65
2022/08/22 09:05:42;;;;;;;11.43;6.15;;;;;;;23.45;62.06;101513.25;5010106;28;20041;-65
2022/08/22 09:08:20;;;;;;;13.40;7.15;;;;;;;23.00;64.15;101503.81;5010168;28;20030;-66
2022/08/22 09:11:16;;;;;;;13.10;5.95;;;;;;;22.74;63.90;101501.75;5010161;28;20033;-65
2022/08/22 09:14:20;;;;;;;13.30;7.78;;;;;;;22.59;62.92;101501.63;5009916;28;20087;-66
2022/08/22 09:17:18;;;;;;;18.70;6.65;;;;;;;22.49;64.30;101507.00;4999360;28;20092;-66
2022/08/22 09:20:09;;;;;;;11.88;6.78;;;;;;;22.44;64.62;101501.53;5009956;28;20022;-65
2022/08/22 09:23:11;;;;;;;12.85;6.88;;;;;;;22.39;64.78;101499.56;5010102;28;20033;-66
2022/08/22 09:25:48;;;;;;;12.68;6.47;;;;;;;22.36;64.83;101499.28;5009499;28;20084;-66
2022/08/22 09:28:21;;;;;;;13.75;7.88;;;;;;;22.27;62.64;101505.19;5009854;28;20040;-65
2022/08/22 09:30:55;;;;;;;14.35;6.75;;;;;;;22.28;62.59;101492.41;5010005;28;20033;-66
2022/08/22 09:33:28;;;;;;;11.45;7.00;;;;;;;22.26;64.98;101500.81;5009939;28;20037;-67
2022/08/22 09:36:02;;;;;;;14.23;7.13;;;;;;;22.25;64.35;101495.66;4992052;28;20040;-65
2022/08/22 09:38:40;;;;;;;14.48;7.13;;;;;;;22.26;64.67;101500.81;5009656;28;20080;-65
2022/08/22 09:41:13;;;;;;;10.85;6.63;;;;;;;22.28;65.76;101509.53;5005446;28;20050;-65
2022/08/22 09:43:54;;;;;;;13.20;7.25;;;;;;;22.28;64.76;101504.09;5005659;28;20026;-65
2022/08/22 09:46:24;;;;;;;13.07;7.30;;;;;;;22.27;63.44;101498.94;5005765;28;20040;-65
2022/08/22 09:49:07;;;;;;;11.85;6.50;;;;;;;22.21;63.86;101497.25;5005422;28;20030;-65
2022/08/22 09:52:18;;;;;;;13.07;5.30;;;;;;;22.24;62.93;101505.72;5005574;28;20107;-65
2022/08/22 09:54:48;;;;;;;12.30;6.78;;;;;;;22.22;61.17;101501.63;5002232;28;20041;-64
2022/08/22 09:57:49;;;;;;;8.95;5.63;;;;;;;22.27;63.83;101498.94;5006373;28;20084;-65
2022/08/22 10:00:32;;;;;;;16.67;6.40;;;;;;;22.35;64.12;101501.19;5006198;28;20029;-65
2022/08/22 10:03:50;;;;;;;15.00;6.00;;;;;;;22.41;63.70;101493.88;5009594;28;20034;-65
2022/08/22 10:06:29;;;;;;;12.32;5.47;;;;;;;22.31;59.92;101476.41;4988270;28;20132;-65
2022/08/22 10:09:11;;;;;;;10.10;4.85;;;;;;;22.44;62.02;101487.94;5009205;28;20038;-64
2022/08/22 10:11:44;;;;;;;;;;;;;;;22.54;62.74;101488.81;5009664;28;20157;-65
2022/08/22 10:14:17;;;;;;;7.25;3.85;;;;;;;22.54;63.37;101477.94;5009221;28;19917;-65
2022/08/22 10:17:08;;;;;;;9.70;3.75;;;;;;;22.54;59.24;101472.50;5009394;28;20144;-65
2022/08/22 10:19:58;;;;;;;7.45;3.38;;;;;;;22.62;60.60;101473.09;5009258;28;20022;-65
2022/08/22 10:22:43;;;;;;;6.57;3.70;;;;;;;22.74;59.33;101473.69;5009223;28;20029;-65
2022/08/22 10:25:26;;;;;;;8.27;3.45;;;;;;;22.85;58.97;101469.16;5009283;28;20108;-65
2022/08/22 10:27:58;;;;;;;11.13;4.53;;;;;;;22.87;56.52;101470.53;5009295;28;20061;-69
2022/08/22 10:30:34;;;;;;;10.50;3.00;;;;;;;22.92;55.72;101462.41;5009358;28;20041;-69
2022/08/22 10:33:14;;;;;;;9.52;3.33;;;;;;;23.00;56.25;101465.72;5009143;28;20117;-68
2022/08/22 10:35:56;;;;;;;6.05;3.10;;;;;;;23.04;55.96;101464.13;5009063;28;20061;-68
2022/08/22 10:38:51;;;;;;;11.65;3.33;;;;;;;23.01;56.04;101456.50;5010803;28;20058;-68
2022/08/22 10:41:35;;;;;;;9.75;3.30;;;;;;;22.97;56.93;101458.91;5012410;28;20079;-68
2022/08/22 10:44:17;;;;;;;9.88;3.08;;;;;;;22.91;56.35;101459.94;5013163;28;20377;-68
2022/08/22 10:46:53;;;;;;;9.13;3.58;;;;;;;22.87;58.49;101458.81;5012860;28;20033;-68
2022/08/22 10:49:34;;;;;;;6.82;2.70;;;;;;;22.88;58.10;101455.03;5012706;28;20036;-68
2022/08/22 10:52:07;;;;;;;13.03;4.20;;;;;;;22.93;59.89;101455.88;5012773;28;20381;-68
2022/08/22 10:54:56;;;;;;;6.47;3.33;;;;;;;22.97;55.53;101457.00;5012689;28;20890;-68
2022/08/22 10:57:36;;;;;;;10.43;4.03;;;;;;;23.02;56.84;101450.75;5012855;28;20140;-68
2022/08/22 11:00:41;;;;;;;9.95;3.20;;;;;;;23.13;56.35;101449.75;5012065;28;20030;-69
2022/08/22 11:03:26;;;;;;;8.35;3.28;;;;;;;23.29;57.57;101447.88;5011229;28;20034;-69
2022/08/22 11:05:58;;;;;;;8.93;2.97;;;;;;;23.32;56.63;101449.25;5011550;28;20540;-69
2022/08/22 11:08:23;;;;;;;8.40;3.38;;;;;;;23.48;56.60;101441.94;5011946;28;20501;-69
2022/08/22 11:10:52;;;;;;;6.77;3.20;;;;;;;23.60;52.64;101442.50;5012644;28;20108;-68
2022/08/22 11:13:36;;;;;;;8.60;3.08;;;;;;;23.76;54.71;101441.50;5012448;28;20292;-67
2022/08/22 11:16:04;;;;;;;9.98;3.50;;;;;;;23.98;53.12;101440.41;5012595;28;20436;-64
2022/08/22 11:18:48;;;;;;;7.72;3.25;;;;;;;24.13;52.96;101436.84;5012054;28;20445;-64
2022/08/22 11:21:32;;;;;;;8.98;3.47;;;;;;;24.26;51.06;101445.31;5011562;28;20041;-66
2022/08/22 11:24:23;;;;;;;8.00;3.67;;;;;;;24.35;52.16;101439.28;5012154;28;20064;-65
2022/08/22 11:27:04;;;;;;;8.45;3.40;;;;;;;24.34;53.71;101443.09;5012138;28;20405;-65
2022/08/22 11:30:13;;;;;;;6.50;3.63;;;;;;;24.20;53.46;101432.75;5012027;28;20556;-64
2022/08/22 11:32:41;;;;;;;5.85;2.80;;;;;;;24.23;52.39;101437.69;5011389;28;20054;-65
2022/08/22 11:35:24;;;;;;;10.32;3.47;;;;;;;24.21;53.75;101433.59;4994110;28;20385;-65
2022/08/22 11:37:55;;;;;;;4.68;2.88;;;;;;;24.32;54.11;101437.13;5011949;28;20077;-64
2022/08/22 11:40:56;;;;;;;7.18;2.63;;;;;;;24.37;54.11;101434.38;5012131;28;20061;-65
2022/08/22 11:43:36;;;;;;;6.65;3.08;;;;;;;24.40;52.16;101426.47;4994803;28;20092;-65
2022/08/22 11:46:24;;;;;;;5.03;2.28;;;;;;;24.44;52.38;101429.44;5011968;28;20030;-65
2022/08/22 11:49:05;;;;;;;4.63;2.30;;;;;;;24.40;52.20;101433.84;5011755;28;20026;-66
2022/08/22 11:52:16;;;;;;;5.13;2.40;;;;;;;24.48;51.78;101425.94;5011926;28;20152;-66
2022/08/22 11:55:10;;;;;;;9.93;4.03;;;;;;;24.39;53.56;101429.47;4998727;28;20038;-65
2022/08/22 11:57:53;;;;;;;6.03;2.45;;;;;;;24.38;48.64;101425.91;5004149;28;20045;-65
2022/08/22 12:00:31;;;;;;;9.13;2.90;;;;;;;24.56;50.98;101426.47;5011644;28;20026;-65
2022/08/22 12:03:19;;;;;;;5.20;2.35;;;;;;;24.85;51.53;101423.91;5011592;28;20030;-64
2022/08/22 12:05:53;;;;;;;5.88;3.08;;;;;;;25.11;47.45;101422.72;4972708;28;20056;-66
2022/08/22 12:08:27;;;;;;;7.95;2.55;;;;;;;25.20;47.43;101422.16;5011572;28;20038;-66
2022/08/22 12:11:08;;;;;;;3.95;2.55;;;;;;;25.03;48.06;101423.28;5011423;28;20393;-65
2022/08/22 12:13:39;;;;;;;5.35;2.15;;;;;;;24.86;48.57;101418.19;5010847;28;20030;-66
2022/08/22 12:16:28;;;;;;;6.03;2.85;;;;;;;24.65;50.16;101413.88;5011825;28;20029;-66
2022/08/22 12:19:24;;;;;;;4.85;2.10;;;;;;;24.51;48.73;101418.28;5011286;28;20477;-65
2022/08/22 12:22:37;;;;;;;4.43;2.00;;;;;;;24.49;50.99;101413.91;5011009;28;20061;-65